Aleksandrovskoe, Russia
Current Conditions -  °F | °C
As of 7:30 AM on Sunday 26 Oct 2014 (Local Time) from USNN Reporting Station
Clear Clear  
Wind Chill: -9°   Ceiling: Unl
Heat Index:   Visibility: 6mi
Dew Point: -2°   Wind: 7mph
Humidity: 78%   Direction: 220°SW
Pressure: 29.62"   Gusts: NA
Location:  60.43°N, 77.87°E
Report Text: USNN 260030Z 22003MPS CAVOK M16/M19 Q1003 NOSIG RMK QFE74821410362
Loading
Personal Weather Stations






























Interactive Weather Map
Tropical Storm Tracking
New forecast layout! Learn more

10-Day Weather Forecast

Advertisements
Track Severe Weather on mobile